Terminal Aerodrome Forecast
Issued by NWS Detroit/Pontiac, MI

Home | Current Version | Previous Version | Text Only | Print | Product List | Glossary On
Versions: 1 2 3 4 5 6 7 8 9 10 11 12 13 14 15 16 17 18 19 20 21 22 23 24 25 26 27
634
FTUS43 KDTX 140911 AAA
TAFDTW
TAF AMD
KDTW 140911Z 1409/1512 VRB03KT P6SM SKC
     FM141600 14008KT P6SM SCT025 BKN035 BKN200
     FM142300 14010KT P6SM SCT030 OVC120
     FM150300 14012KT 6SM -SN SCT025 OVC035
     FM150500 14012KT 3SM -SN BKN025 OVC035
     FM150800 15012KT 1SM -SN OVC010=

USA.gov is the U.S. government's official web portal to all federal, state and local government web resources and services.